createdAt,value
2018-05-13T00:00:24.727Z,23.27
2018-05-13T00:02:50.903Z,22.35
2018-05-13T00:05:17.058Z,21.70
2018-05-13T00:07:43.781Z,22.73
2018-05-13T00:10:10.628Z,22.33
2018-05-13T00:12:37.513Z,21.50
2018-05-13T00:15:03.578Z,19.87
2018-05-13T00:17:29.882Z,20.37
2018-05-13T00:19:56.673Z,21.37
2018-05-13T00:22:23.669Z,20.10
2018-05-13T00:24:49.746Z,21.87
2018-05-13T00:27:15.784Z,21.60
2018-05-13T00:29:41.888Z,21.03
2018-05-13T00:32:08.711Z,20.70
2018-05-13T00:34:34.799Z,20.70
2018-05-13T00:37:01.589Z,21.77
2018-05-13T00:39:27.707Z,21.37
2018-05-13T00:41:53.697Z,20.27
2018-05-13T00:44:19.810Z,22.43
2018-05-13T00:46:45.830Z,20.73
2018-05-13T00:49:11.893Z,21.80
2018-05-13T00:51:37.933Z,22.37
2018-05-13T00:54:16.301Z,22.80
2018-05-13T00:56:43.106Z,20.27
2018-05-13T00:59:09.181Z,20.57
2018-05-13T01:01:35.980Z,22.77
2018-05-13T01:04:02.159Z,20.07
2018-05-13T01:06:28.246Z,21.33
2018-05-13T01:08:54.267Z,21.50
2018-05-13T01:11:21.078Z,20.60
2018-05-13T01:13:47.325Z,20.60
2018-05-13T01:16:13.421Z,21.83
2018-05-13T01:18:39.477Z,19.83
2018-05-13T01:21:05.549Z,21.50
2018-05-13T01:23:31.618Z,22.60
2018-05-13T01:25:58.444Z,20.80
2018-05-13T01:28:24.467Z,21.07
2018-05-13T01:30:50.508Z,21.60
2018-05-13T01:33:16.545Z,19.47
2018-05-13T01:35:42.617Z,19.50
2018-05-13T01:38:09.610Z,19.07
2018-05-13T01:40:35.684Z,20.53
2018-05-13T01:43:01.767Z,20.80
2018-05-13T01:45:27.874Z,20.50
2018-05-13T01:47:53.960Z,20.27
2018-05-13T01:50:20.010Z,20.60
2018-05-13T01:52:46.044Z,19.37
2018-05-13T01:55:12.181Z,20.00
2018-05-13T01:57:38.212Z,21.90
2018-05-13T02:00:04.230Z,18.70
2018-05-13T02:02:31.236Z,20.30
2018-05-13T02:04:57.317Z,21.10
2018-05-13T02:07:23.373Z,20.80
2018-05-13T02:09:49.401Z,20.87
2018-05-13T02:12:15.429Z,20.50
2018-05-13T02:14:42.389Z,20.93
2018-05-13T02:17:09.180Z,20.77
2018-05-13T02:19:35.225Z,19.60
2018-05-13T02:22:01.298Z,19.17
2018-05-13T02:24:27.369Z,19.63
2018-05-13T02:26:53.439Z,20.20
2018-05-13T02:29:19.461Z,19.17
2018-05-13T02:31:45.503Z,19.50
2018-05-13T02:34:11.564Z,20.03
2018-05-13T02:36:37.590Z,20.20
2018-05-13T02:39:03.642Z,20.03
2018-05-13T02:41:29.698Z,19.13
2018-05-13T02:43:56.506Z,18.70
2018-05-13T02:46:22.559Z,20.30
2018-05-13T02:48:48.717Z,18.73
2018-05-13T02:51:14.761Z,19.87
2018-05-13T02:53:41.006Z,19.20
2018-05-13T02:56:07.043Z,18.13
2018-05-13T02:58:33.061Z,18.83
2018-05-13T03:00:59.118Z,18.47
2018-05-13T03:03:25.165Z,18.63
2018-05-13T03:05:51.951Z,18.30
2018-05-13T03:08:17.978Z,19.30
2018-05-13T03:10:44.030Z,20.13
2018-05-13T03:13:10.126Z,20.17
2018-05-13T03:15:36.973Z,19.00
2018-05-13T03:18:03.176Z,19.30
2018-05-13T03:20:29.225Z,20.03
2018-05-13T03:23:00.211Z,18.90
2018-05-13T03:25:27.510Z,18.70
2018-05-13T03:27:53.577Z,19.40
2018-05-13T03:30:19.619Z,20.10
2018-05-13T03:32:45.689Z,18.67
2018-05-13T03:35:11.763Z,19.63
2018-05-13T03:37:37.929Z,19.50
2018-05-13T03:40:03.958Z,19.43
2018-05-13T03:42:30.339Z,21.07
2018-05-13T03:44:56.478Z,20.83
2018-05-13T03:47:22.482Z,19.93
2018-05-13T03:49:48.540Z,18.50
2018-05-13T03:52:14.678Z,20.40
2018-05-13T03:54:40.768Z,20.00
2018-05-13T03:57:06.833Z,20.47
2018-05-13T03:59:32.897Z,18.50
2018-05-13T04:01:58.937Z,20.67
2018-05-13T04:04:24.976Z,19.73
2018-05-13T04:06:51.147Z,19.70
2018-05-13T04:09:30.256Z,19.43
2018-05-13T04:12:09.392Z,20.67
2018-05-13T04:14:47.757Z,20.13
2018-05-13T04:17:13.808Z,19.60
2018-05-13T04:19:39.853Z,19.10
2018-05-13T04:22:05.929Z,19.27
2018-05-13T04:24:31.955Z,18.90
2018-05-13T04:26:58.019Z,18.33
2018-05-13T04:29:24.043Z,19.23
2018-05-13T04:31:50.853Z,19.00
2018-05-13T04:34:16.927Z,18.27
2018-05-13T04:36:42.958Z,18.60
2018-05-13T04:39:09.033Z,19.07
2018-05-13T04:41:35.080Z,18.00
2018-05-13T04:44:01.872Z,18.57
2018-05-13T04:46:27.917Z,18.47
2018-05-13T04:48:54.011Z,19.92
2018-05-13T04:51:20.794Z,20.60
2018-05-13T04:53:46.798Z,21.15
2018-05-13T04:56:13.610Z,20.88
2018-05-13T04:58:39.646Z,19.83
2018-05-13T05:01:05.717Z,19.30
2018-05-13T05:03:31.797Z,19.90
2018-05-13T05:05:58.583Z,20.10
2018-05-13T05:08:24.637Z,20.05
2018-05-13T05:10:50.732Z,20.88
2018-05-13T05:13:16.770Z,20.27
2018-05-13T05:15:42.833Z,19.87
2018-05-13T05:18:08.877Z,20.15
2018-05-13T05:20:36.456Z,20.08
2018-05-13T05:23:02.585Z,20.10
2018-05-13T05:25:28.684Z,20.37
2018-05-13T05:27:54.821Z,19.92
2018-05-13T05:30:20.787Z,19.62
2018-05-13T05:32:46.844Z,19.17
2018-05-13T05:35:14.461Z,19.95
2018-05-13T05:37:40.576Z,20.00
2018-05-13T05:40:06.656Z,19.75
2018-05-13T05:42:32.693Z,17.60
2018-05-13T06:19:03.182Z,18.50
2018-05-13T06:21:29.265Z,16.50
2018-05-13T06:23:55.418Z,17.87
2018-05-13T06:26:21.442Z,18.00
2018-05-13T06:28:48.238Z,16.63
2018-05-13T06:31:14.317Z,17.43
2018-05-13T06:33:41.395Z,17.30
2018-05-13T06:36:08.153Z,17.20
2018-05-13T06:38:34.228Z,17.37
2018-05-13T06:41:00.269Z,17.93
2018-05-13T06:43:26.330Z,17.17
2018-05-13T06:45:52.402Z,18.60
2018-05-13T06:48:18.473Z,17.20
2018-05-13T06:50:44.554Z,17.30
2018-05-13T06:53:11.373Z,16.83
2018-05-13T06:55:37.435Z,16.67
2018-05-13T06:58:03.475Z,17.40
2018-05-13T07:00:29.543Z,18.33
2018-05-13T07:02:55.793Z,16.83
2018-05-13T07:05:21.843Z,17.90
2018-05-13T07:07:48.007Z,17.67
2018-05-13T07:10:14.115Z,19.40
2018-05-13T07:12:40.195Z,18.77
2018-05-13T07:15:06.271Z,19.30
2018-05-13T07:17:33.038Z,18.20
2018-05-13T07:19:59.145Z,19.05
2018-05-13T07:22:25.180Z,17.90
2018-05-13T07:24:51.232Z,16.87
2018-05-13T07:27:18.030Z,16.73
2018-05-13T07:29:44.145Z,18.63
2018-05-13T07:32:10.650Z,17.23
2018-05-13T07:34:36.747Z,18.30
2018-05-13T07:41:54.989Z,18.10
2018-05-13T07:44:21.033Z,18.70
2018-05-13T07:46:47.137Z,18.70
2018-05-13T07:49:13.482Z,17.87
2018-05-13T07:51:39.537Z,17.13
2018-05-13T07:54:05.631Z,18.70
2018-05-13T07:56:31.669Z,17.77
2018-05-13T07:58:58.475Z,18.20
2018-05-13T08:01:25.282Z,16.47
2018-05-13T08:03:51.349Z,18.47
2018-05-13T08:06:17.445Z,17.60
2018-05-13T08:08:43.503Z,16.97
2018-05-13T08:11:09.589Z,19.58
2018-05-13T08:13:35.639Z,19.20
2018-05-13T08:16:01.665Z,18.23
2018-05-13T08:18:27.714Z,16.12
2018-05-13T08:20:53.790Z,16.20
2018-05-13T08:23:19.922Z,16.75
2018-05-13T08:25:46.029Z,17.10
2018-05-13T08:28:12.483Z,15.85
2018-05-13T08:30:39.557Z,16.93
2018-05-13T08:33:05.608Z,16.73
2018-05-13T08:35:31.664Z,15.98
2018-05-13T08:37:57.712Z,16.08
2018-05-13T08:40:23.754Z,17.70
2018-05-13T08:42:49.841Z,14.93
2018-05-13T08:45:17.051Z,15.07
2018-05-13T08:47:43.160Z,15.40
2018-05-13T08:50:09.599Z,15.77
2018-05-13T08:52:36.441Z,15.88
2018-05-13T08:55:03.376Z,14.90
2018-05-13T08:57:29.671Z,15.00
2018-05-13T08:59:55.714Z,14.70
2018-05-13T09:02:21.759Z,15.07
2018-05-13T09:04:47.804Z,15.20
2018-05-13T09:07:13.887Z,14.68
2018-05-13T09:09:39.910Z,13.55
2018-05-13T09:12:05.957Z,13.10
2018-05-13T09:14:32.015Z,11.63
2018-05-13T09:16:58.806Z,12.05
2018-05-13T09:19:24.830Z,13.00
2018-05-13T09:21:51.229Z,11.82
2018-05-13T09:24:17.287Z,11.60
2018-05-13T09:26:44.146Z,11.50
2018-05-13T09:29:11.006Z,12.80
2018-05-13T09:31:37.787Z,11.57
2018-05-13T09:34:03.899Z,11.20
2018-05-13T09:36:29.940Z,12.43
2018-05-13T09:38:55.985Z,12.33
2018-05-13T09:41:22.012Z,12.07
2018-05-13T09:43:48.089Z,12.20
2018-05-13T09:46:14.184Z,11.73
2018-05-13T09:48:40.251Z,12.00
2018-05-13T09:51:06.304Z,11.63
2018-05-13T10:00:50.184Z,11.20
2018-05-13T10:03:16.209Z,11.37
2018-05-13T10:05:42.302Z,11.07
2018-05-13T10:08:08.421Z,10.80
2018-05-13T10:10:34.458Z,9.90
2018-05-13T10:13:00.510Z,11.30
2018-05-13T10:15:26.563Z,11.77
2018-05-13T10:17:52.610Z,10.50
2018-05-13T10:20:18.634Z,10.57
2018-05-13T10:22:45.027Z,11.37
2018-05-13T10:25:11.515Z,10.40
2018-05-13T10:27:37.575Z,11.80
2018-05-13T10:30:03.652Z,10.60
2018-05-13T10:32:30.435Z,10.50
2018-05-13T10:34:56.530Z,11.40
2018-05-13T10:37:22.586Z,10.00
2018-05-13T10:39:48.655Z,9.88
2018-05-13T10:42:14.886Z,9.80
2018-05-13T10:44:41.064Z,9.23
2018-05-13T10:47:07.100Z,9.65
2018-05-13T10:49:33.264Z,9.10
2018-05-13T10:52:00.054Z,9.10
2018-05-13T10:54:26.176Z,8.87
2018-05-13T10:56:52.984Z,9.00
2018-05-13T10:59:19.037Z,7.62
2018-05-13T11:01:45.157Z,8.30
2018-05-13T11:04:11.248Z,8.80
2018-05-13T11:09:04.079Z,9.17
2018-05-13T11:11:30.213Z,8.23
2018-05-13T11:13:56.300Z,7.33
2018-05-13T11:16:22.359Z,7.70
2018-05-13T11:18:49.160Z,7.70
2018-05-13T11:21:15.188Z,7.50
2018-05-13T11:23:41.317Z,6.73
2018-05-13T11:26:07.370Z,6.43
2018-05-13T11:28:33.502Z,7.43
2018-05-13T11:31:00.156Z,6.00
2018-05-13T11:33:26.208Z,6.62
2018-05-13T11:35:52.302Z,7.22
2018-05-13T11:38:18.354Z,6.90
2018-05-13T11:40:44.399Z,5.95
2018-05-13T11:43:10.495Z,6.78
2018-05-13T11:45:37.341Z,6.05
2018-05-13T11:48:03.389Z,6.40
2018-05-13T11:50:30.181Z,6.72
2018-05-13T11:52:56.288Z,6.50
2018-05-13T11:55:23.067Z,6.85
2018-05-13T11:57:49.113Z,6.40
2018-05-13T12:00:15.221Z,7.00
2018-05-13T12:02:42.042Z,6.20
2018-05-13T12:05:08.088Z,5.80
2018-05-13T12:07:34.152Z,6.05
2018-05-13T12:10:01.028Z,6.62
2018-05-13T12:12:27.076Z,6.18
2018-05-13T12:14:53.482Z,5.28
2018-05-13T12:17:20.246Z,5.82
2018-05-13T12:19:46.305Z,5.90
2018-05-13T12:22:12.531Z,5.40
2018-05-13T12:24:38.605Z,5.30
2018-05-13T12:27:04.667Z,5.78
2018-05-13T12:29:30.709Z,5.07
2018-05-13T12:31:56.750Z,5.60
2018-05-13T12:34:22.820Z,23.75
2018-05-13T12:36:48.915Z,51.88
2018-05-13T12:39:15.016Z,37.30
2018-05-13T12:41:41.147Z,25.00
2018-05-13T12:44:07.190Z,12.52
2018-05-13T12:46:34.047Z,6.43
2018-05-13T12:49:00.122Z,4.68
2018-05-13T12:51:26.197Z,5.07
2018-05-13T12:53:52.313Z,5.25
2018-05-13T12:56:18.518Z,4.50
2018-05-13T12:58:44.625Z,4.90
2018-05-13T13:01:10.694Z,4.57
2018-05-13T13:03:36.766Z,4.57
2018-05-13T13:06:02.813Z,4.68
2018-05-13T13:08:29.186Z,4.30
2018-05-13T13:10:55.253Z,4.28
2018-05-13T13:13:21.336Z,4.30
2018-05-13T13:15:48.192Z,4.30
2018-05-13T13:18:14.399Z,4.22
2018-05-13T13:20:40.509Z,4.32
2018-05-13T13:23:06.712Z,4.70
2018-05-13T13:25:34.066Z,4.93
2018-05-13T13:28:00.113Z,4.57
2018-05-13T13:30:26.960Z,4.70
2018-05-13T13:32:52.947Z,5.37
2018-05-13T13:35:18.990Z,6.37
2018-05-13T13:37:45.066Z,7.00
2018-05-13T13:40:11.293Z,5.45
2018-05-13T13:42:37.341Z,5.37
2018-05-13T13:45:03.444Z,5.07
2018-05-13T13:47:29.544Z,5.15
2018-05-13T13:49:56.411Z,5.12
2018-05-13T13:52:22.560Z,5.32
2018-05-13T13:54:48.583Z,4.85
2018-05-13T13:57:15.411Z,5.00
2018-05-13T13:59:41.527Z,5.28
2018-05-13T14:02:07.606Z,4.97
2018-05-13T14:04:34.407Z,4.93
2018-05-13T14:07:00.466Z,5.60
2018-05-13T14:09:26.513Z,5.15
2018-05-13T14:11:53.568Z,5.55
2018-05-13T14:14:19.626Z,5.20
2018-05-13T14:16:45.855Z,5.32
2018-05-13T14:19:11.958Z,5.47
2018-05-13T14:21:38.340Z,4.85
2018-05-13T14:24:04.439Z,5.25
2018-05-13T14:26:30.468Z,5.07
2018-05-13T14:28:56.527Z,5.12
2018-05-13T14:31:22.553Z,5.18
2018-05-13T14:33:48.611Z,4.65
2018-05-13T14:36:14.686Z,4.53
2018-05-13T14:38:40.838Z,5.20
2018-05-13T14:41:07.624Z,5.00
2018-05-13T14:43:33.678Z,5.53
2018-05-13T14:45:59.853Z,5.15
2018-05-13T14:48:26.644Z,5.70
2018-05-13T14:50:52.738Z,6.28
2018-05-13T14:53:18.824Z,6.62
2018-05-13T14:55:44.963Z,6.28
2018-05-13T14:58:11.212Z,7.40
2018-05-13T15:00:37.180Z,7.20
2018-05-13T15:03:03.249Z,8.13
2018-05-13T15:05:30.146Z,7.28
2018-05-13T15:07:57.299Z,8.80
2018-05-13T15:10:23.358Z,7.35
2018-05-13T15:12:49.380Z,6.40
2018-05-13T15:15:15.607Z,5.65
2018-05-13T15:17:41.650Z,5.47
2018-05-13T15:20:07.771Z,4.60
2018-05-13T15:22:33.945Z,4.93
2018-05-13T15:24:59.979Z,5.45
2018-05-13T15:27:26.035Z,5.00
2018-05-13T15:29:52.099Z,4.45
2018-05-13T15:32:18.318Z,4.45
2018-05-13T15:34:44.385Z,4.22
2018-05-13T15:37:10.496Z,4.57
2018-05-13T15:39:36.523Z,4.25
2018-05-13T15:42:02.605Z,4.62
2018-05-13T15:44:29.557Z,5.00
2018-05-13T15:46:56.398Z,5.47
2018-05-13T15:49:23.198Z,4.55
2018-05-13T15:51:49.295Z,4.68
2018-05-13T15:54:15.401Z,4.50
2018-05-13T15:56:41.573Z,3.78
2018-05-13T15:59:07.638Z,3.45
2018-05-13T16:01:33.724Z,3.47
2018-05-13T16:04:00.545Z,3.72
2018-05-13T16:06:26.651Z,3.70
2018-05-13T16:08:53.470Z,3.78
2018-05-13T16:11:19.536Z,6.53
2018-05-13T16:13:46.356Z,5.05
2018-05-13T16:16:12.691Z,3.33
2018-05-13T16:18:38.751Z,4.40
2018-05-13T16:21:04.847Z,5.00
2018-05-13T16:23:30.885Z,3.97
2018-05-13T16:25:57.060Z,6.53
2018-05-13T16:28:23.151Z,4.97
2018-05-13T16:30:49.221Z,3.97
2018-05-13T16:33:15.384Z,3.72
2018-05-13T16:35:41.483Z,3.57
2018-05-13T16:38:07.596Z,3.45
2018-05-13T16:40:33.634Z,3.53
2018-05-13T16:43:01.238Z,3.70
2018-05-13T16:45:27.356Z,4.35
2018-05-13T16:47:53.384Z,4.80
2018-05-13T16:50:19.473Z,3.78
2018-05-13T16:52:45.572Z,3.40
2018-05-13T16:55:11.940Z,4.57
2018-05-13T16:57:37.989Z,3.75
2018-05-13T17:00:04.785Z,8.30
2018-05-13T17:02:32.732Z,7.60
2018-05-13T17:04:58.696Z,9.30
2018-05-13T17:07:24.805Z,3.12
2018-05-13T17:09:50.864Z,4.32
2018-05-13T17:12:17.917Z,3.53
2018-05-13T17:14:44.251Z,3.55
2018-05-13T17:17:10.821Z,3.65
2018-05-13T17:19:37.021Z,3.03
2018-05-13T17:22:03.151Z,2.85
2018-05-13T17:24:29.221Z,3.30
2018-05-13T17:26:55.302Z,3.65
2018-05-13T17:29:22.127Z,3.60
2018-05-13T17:31:48.322Z,3.60
2018-05-13T17:34:21.261Z,3.53
2018-05-13T17:36:47.317Z,3.33
2018-05-13T17:39:13.459Z,3.90
2018-05-13T17:41:39.440Z,3.53
2018-05-13T17:44:05.504Z,3.50
2018-05-13T17:46:31.825Z,3.10
2018-05-13T17:48:57.890Z,4.20
2018-05-13T17:51:23.947Z,5.43
2018-05-13T17:53:50.056Z,4.63
2018-05-13T17:56:16.273Z,4.53
2018-05-13T17:58:42.410Z,4.43
2018-05-13T18:01:08.495Z,4.30
2018-05-13T18:03:34.556Z,4.23
2018-05-13T18:06:01.488Z,4.73
2018-05-13T18:08:28.229Z,4.17
2018-05-13T18:10:54.269Z,4.93
2018-05-13T18:13:20.379Z,4.17
2018-05-13T18:15:47.420Z,3.30
2018-05-13T18:18:13.466Z,4.03
2018-05-13T18:20:39.530Z,3.23
2018-05-13T18:23:05.703Z,3.37
2018-05-13T18:25:32.519Z,3.40
2018-05-13T18:27:58.567Z,3.60
2018-05-13T18:30:24.592Z,3.93
2018-05-13T18:32:50.712Z,4.47
2018-05-13T18:35:17.914Z,5.13
2018-05-13T18:37:44.074Z,4.47
2018-05-13T18:40:10.222Z,4.00
2018-05-13T18:42:37.121Z,3.97
2018-05-13T18:45:03.190Z,3.57
2018-05-13T18:47:30.749Z,3.73
2018-05-13T18:49:56.833Z,11.07
2018-05-13T18:52:23.649Z,3.70
2018-05-13T18:54:49.698Z,4.20
2018-05-13T18:57:16.049Z,3.50
2018-05-13T18:59:42.399Z,4.60
2018-05-13T19:02:09.219Z,4.20
2018-05-13T19:04:35.275Z,4.00
2018-05-13T19:07:01.382Z,3.50
2018-05-13T19:09:27.487Z,4.05
2018-05-13T19:11:54.321Z,3.40
2018-05-13T19:14:21.186Z,3.33
2018-05-13T19:16:47.571Z,3.53
2018-05-13T19:19:13.736Z,3.80
2018-05-13T19:21:39.818Z,3.80
2018-05-13T19:24:06.640Z,4.40
2018-05-13T19:26:32.709Z,6.40
2018-05-13T19:28:59.575Z,3.80
2018-05-13T19:31:26.381Z,3.90
2018-05-13T19:33:52.472Z,3.70
2018-05-13T19:36:18.699Z,3.55
2018-05-13T19:38:45.543Z,3.70
2018-05-13T19:41:12.356Z,3.37
2018-05-13T19:43:38.683Z,3.50
2018-05-13T19:46:04.755Z,3.70
2018-05-13T19:48:30.889Z,4.07
2018-05-13T19:50:57.057Z,3.40
2018-05-13T19:53:23.212Z,4.53
2018-05-13T19:55:49.997Z,4.50
2018-05-13T19:58:16.066Z,5.00
2018-05-13T20:00:42.171Z,4.12
2018-05-13T20:03:08.374Z,3.90
2018-05-13T20:05:34.330Z,4.50
2018-05-13T20:08:01.211Z,4.50
2018-05-13T20:10:27.333Z,4.80
2018-05-13T20:12:53.370Z,4.47
2018-05-13T20:15:19.514Z,3.83
2018-05-13T20:17:45.810Z,4.07
2018-05-13T20:20:11.884Z,3.70
2018-05-13T20:22:51.291Z,4.30
2018-05-13T20:25:17.294Z,5.30
2018-05-13T20:27:43.887Z,4.50
2018-05-13T20:30:11.045Z,4.90
2018-05-13T20:32:37.106Z,4.37
2018-05-13T20:35:03.149Z,4.23
2018-05-13T20:37:29.322Z,4.07
2018-05-13T20:39:55.394Z,4.30
2018-05-13T20:42:21.503Z,4.30
2018-05-13T20:44:47.573Z,4.47
2018-05-13T20:47:13.759Z,4.40
2018-05-13T20:49:40.561Z,3.90
2018-05-13T20:52:06.652Z,4.00
2018-05-13T20:54:33.494Z,4.90
2018-05-13T20:56:59.544Z,4.17
2018-05-13T20:59:26.382Z,4.40
2018-05-13T21:01:52.686Z,4.00
2018-05-13T21:04:18.732Z,3.90
2018-05-13T21:06:45.549Z,4.30
2018-05-13T21:09:11.661Z,4.40
2018-05-13T21:11:37.711Z,4.93
2018-05-13T21:14:03.757Z,3.73
2018-05-13T21:16:29.834Z,4.10
2018-05-13T21:18:55.906Z,4.30
2018-05-13T21:21:22.024Z,4.73
2018-05-13T21:23:48.820Z,3.77
2018-05-13T21:26:15.612Z,4.60
2018-05-13T21:28:41.749Z,4.10
2018-05-13T21:31:07.793Z,5.30
2018-05-13T21:33:33.822Z,4.60
2018-05-13T21:35:59.904Z,4.70
2018-05-13T21:38:25.920Z,4.27
2018-05-13T21:40:51.966Z,4.20
2018-05-13T21:43:18.038Z,5.00
2018-05-13T21:45:44.116Z,4.60
2018-05-13T21:48:10.377Z,4.80
2018-05-13T21:50:36.442Z,4.60
2018-05-13T21:53:03.315Z,4.93
2018-05-13T21:55:29.377Z,4.93
2018-05-13T21:57:55.535Z,4.83
2018-05-13T22:00:22.551Z,4.87
2018-05-13T22:02:48.632Z,4.43
2018-05-13T22:05:14.920Z,5.37
2018-05-13T22:07:46.179Z,4.70
2018-05-13T22:10:13.110Z,5.17
2018-05-13T22:12:39.152Z,3.97
2018-05-13T22:15:05.510Z,4.97
2018-05-13T22:17:31.557Z,4.33
2018-05-13T22:19:57.598Z,4.53
2018-05-13T22:22:23.652Z,4.20
2018-05-13T22:24:49.688Z,4.93
2018-05-13T22:27:15.732Z,5.27
2018-05-13T22:29:41.854Z,4.60
2018-05-13T22:32:07.917Z,4.60
2018-05-13T22:34:34.079Z,4.10
2018-05-13T22:37:00.201Z,4.43
2018-05-13T22:39:26.339Z,4.63
2018-05-13T22:41:52.404Z,4.43
2018-05-13T22:44:19.193Z,4.60
2018-05-13T22:46:45.318Z,4.20
2018-05-13T22:49:11.504Z,4.60
2018-05-13T22:51:37.571Z,4.43
2018-05-13T22:54:03.650Z,4.70
2018-05-13T22:56:29.703Z,4.80
2018-05-13T22:58:55.749Z,4.50
2018-05-13T23:01:21.806Z,5.10
2018-05-13T23:03:47.875Z,4.77
2018-05-13T23:06:13.922Z,4.90
2018-05-13T23:08:40.015Z,4.57
2018-05-13T23:11:06.072Z,4.40
2018-05-13T23:13:32.130Z,4.40
2018-05-13T23:15:58.203Z,5.10
2018-05-13T23:18:24.241Z,4.70
2018-05-13T23:20:50.302Z,4.80
2018-05-13T23:23:16.398Z,5.40
2018-05-13T23:25:42.520Z,4.27
2018-05-13T23:28:08.581Z,4.70
2018-05-13T23:30:35.368Z,4.77
2018-05-13T23:33:01.568Z,4.33
2018-05-13T23:35:28.432Z,4.77
2018-05-13T23:37:54.454Z,4.73
2018-05-13T23:40:21.634Z,4.67
2018-05-13T23:42:48.425Z,4.80
2018-05-13T23:45:14.502Z,4.57
2018-05-13T23:47:41.336Z,4.77
2018-05-13T23:50:07.539Z,4.57
2018-05-13T23:52:33.727Z,4.37
2018-05-13T23:54:59.770Z,5.00
2018-05-13T23:57:25.811Z,4.77
2018-05-13T23:59:51.889Z,4.10
